Time;durP1;ratioP1;P1;durP2;ratioP2;P2;SDS_P1;SDS_P2;PMS_P1;PMS_P2;Temp;Humidity;BMP_temperature;BMP_pressure;BME280_temperature;BME280_humidity;BME280_pressure;Samples;Min_cycle;Max_cycle;Signal;HPM_P1;HPM_P2
2022/05/18 00:01:15;;;;;;;6.88;4.90;;;;;;;18.46;66.91;96115.66;4969646;28;20228;-91
2022/05/18 00:03:44;;;;;;;6.05;5.55;;;;;;;18.44;66.83;96112.47;4969892;28;20200;-92
2022/05/18 00:06:13;;;;;;;6.50;5.70;;;;;;;18.22;67.85;96115.41;4956679;28;20202;-90
2022/05/18 00:08:40;;;;;;;5.80;5.30;;;;;;;18.29;67.30;96115.34;4971621;28;20223;-91
2022/05/18 00:11:10;;;;;;;6.03;4.85;;;;;;;18.22;68.06;96120.63;4962600;28;20203;-92
2022/05/18 00:13:37;;;;;;;6.97;5.13;;;;;;;18.17;68.52;96112.66;4952746;28;20209;-92
2022/05/18 00:16:06;;;;;;;6.65;5.28;;;;;;;18.18;67.84;96119.44;4954637;28;20235;-91
2022/05/18 00:18:33;;;;;;;6.93;5.30;;;;;;;18.25;67.51;96114.22;4967936;28;20239;-90
2022/05/18 00:21:00;;;;;;;6.00;5.40;;;;;;;18.25;67.46;96111.59;4963260;28;20208;-91
2022/05/18 00:23:28;;;;;;;5.95;5.45;;;;;;;18.21;68.22;96107.81;4973328;28;20248;-91
2022/05/18 00:25:55;;;;;;;6.10;5.50;;;;;;;18.22;67.62;96123.25;4967308;28;20204;-92
2022/05/18 00:28:21;;;;;;;5.80;5.30;;;;;;;18.30;66.89;96117.75;4962964;28;20224;-91
2022/05/18 00:30:48;;;;;;;6.50;5.90;;;;;;;18.32;67.40;96121.97;4965104;28;20271;-91
2022/05/18 00:33:15;;;;;;;5.85;5.22;;;;;;;18.29;67.81;96120.56;4973557;28;20198;-92
2022/05/18 00:35:57;;;;;;;5.82;5.32;;;;;;;18.24;67.67;96121.22;4964703;28;20684;-92
2022/05/18 00:38:48;;;;;;;5.40;4.88;;;;;;;18.22;67.92;96120.63;4943809;28;20232;-91
2022/05/18 00:41:19;;;;;;;6.63;5.47;;;;;;;18.25;67.69;96127.25;4960599;28;20196;-91
2022/05/18 00:43:52;;;;;;;6.10;5.00;;;;;;;18.23;67.57;96126.66;4973010;28;20896;-91
2022/05/18 00:46:19;;;;;;;5.45;4.95;;;;;;;18.17;67.38;96130.09;4966260;28;20883;-91
2022/05/18 00:48:46;;;;;;;7.35;4.95;;;;;;;18.03;68.11;96124.16;4974282;28;20220;-90
2022/05/18 00:51:25;;;;;;;5.68;5.20;;;;;;;18.05;68.06;96129.16;4966338;28;20207;-92
2022/05/18 00:53:57;;;;;;;8.55;6.25;;;;;;;18.06;68.23;96128.16;4972041;28;20602;-91
2022/05/18 00:56:36;;;;;;;9.85;8.82;;;;;;;18.06;67.49;96125.56;4965242;28;20216;-92
2022/05/18 00:59:11;;;;;;;6.25;5.50;;;;;;;18.04;67.76;96122.34;4963418;28;20664;-91
2022/05/18 01:01:47;;;;;;;8.18;5.88;;;;;;;17.98;68.31;96124.00;4965759;28;20199;-91
2022/05/18 01:04:16;;;;;;;6.55;4.90;;;;;;;17.99;67.79;96119.56;4939685;28;20575;-91
2022/05/18 01:09:41;;;;;;;5.63;5.05;;;;;;;18.00;67.71;96126.38;4962559;28;20223;-91
2022/05/18 01:12:22;;;;;;;6.43;5.82;;;;;;;17.95;67.59;96119.19;4956776;28;20206;-90
2022/05/18 01:14:58;;;;;;;6.00;5.13;;;;;;;17.94;67.95;96122.81;4965984;28;20208;-91
2022/05/18 01:17:28;;;;;;;6.25;5.10;;;;;;;17.89;68.29;96117.44;4969783;28;20290;-91
2022/05/18 01:20:01;;;;;;;5.65;5.15;;;;;;;17.93;68.36;96118.59;4969135;28;20208;-91
2022/05/18 01:22:37;;;;;;;5.40;5.00;;;;;;;17.96;68.49;96123.41;4965881;28;20204;-91
2022/05/18 01:25:17;;;;;;;5.88;5.32;;;;;;;17.92;68.47;96127.41;4963014;28;20202;-91
2022/05/18 01:27:46;;;;;;;5.40;4.90;;;;;;;17.90;68.45;96132.03;4966929;28;20239;-91
2022/05/18 01:30:16;;;;;;;6.95;4.93;;;;;;;17.85;68.29;96132.69;4974836;28;20593;-91
2022/05/18 01:32:46;;;;;;;5.95;5.35;;;;;;;17.85;68.96;96126.69;4975223;28;20255;-92
2022/05/18 01:35:15;;;;;;;5.90;5.18;;;;;;;17.85;68.67;96134.50;4968695;28;20228;-91
2022/05/18 01:37:44;;;;;;;8.40;5.47;;;;;;;17.76;68.93;96131.31;4970836;28;20236;-91
2022/05/18 01:40:20;;;;;;;7.50;5.10;;;;;;;17.70;69.62;96131.34;4969640;28;20200;-90
2022/05/18 01:42:54;;;;;;;5.65;5.03;;;;;;;17.73;69.15;96130.91;4965901;28;20204;-91
2022/05/18 01:45:21;;;;;;;5.72;4.82;;;;;;;17.69;68.93;96137.56;4972115;28;20230;-91
2022/05/18 01:47:48;;;;;;;5.70;5.00;;;;;;;17.62;69.10;96140.16;4963501;28;20606;-91
2022/05/18 01:50:20;;;;;;;5.55;5.00;;;;;;;17.53;69.63;96134.38;4973618;28;20604;-91
2022/05/18 01:52:46;;;;;;;5.43;5.03;;;;;;;17.57;69.14;96135.56;4966892;28;20216;-92
2022/05/18 01:55:17;;;;;;;6.13;5.13;;;;;;;17.59;69.96;96135.38;4967260;28;20228;-92
2022/05/18 01:57:43;;;;;;;7.18;5.10;;;;;;;17.66;69.58;96143.19;4971062;28;20620;-92
2022/05/18 02:00:31;;;;;;;5.85;5.15;;;;;;;17.63;69.73;96140.97;4967939;28;20207;-91
2022/05/18 02:02:58;;;;;;;6.03;5.45;;;;;;;17.55;69.99;96134.16;4973680;28;20224;-91
2022/05/18 02:05:25;;;;;;;5.53;5.00;;;;;;;17.48;69.91;96146.44;4957770;28;20204;-92
2022/05/18 02:07:52;;;;;;;5.78;5.07;;;;;;;17.54;69.61;96148.19;4972271;28;20238;-92
2022/05/18 02:10:19;;;;;;;7.13;5.53;;;;;;;17.39;69.76;96151.06;4962065;28;20197;-91
2022/05/18 02:12:46;;;;;;;6.22;5.05;;;;;;;17.27;70.34;96156.09;4972291;28;20215;-91
2022/05/18 02:15:14;;;;;;;5.65;5.00;;;;;;;17.25;70.56;96155.50;4969233;28;20203;-92
2022/05/18 02:17:43;;;;;;;5.50;5.00;;;;;;;17.20;70.48;96155.31;4973529;28;20262;-92
2022/05/18 02:20:11;;;;;;;5.63;4.68;;;;;;;17.18;70.76;96152.09;4969096;28;20196;-91
2022/05/18 02:22:40;;;;;;;5.57;5.07;;;;;;;17.23;70.10;96157.50;4973594;28;20196;-91
2022/05/18 02:25:08;;;;;;;5.65;5.03;;;;;;;17.07;70.79;96157.94;4961056;28;20692;-91
2022/05/18 02:27:35;;;;;;;5.30;4.90;;;;;;;17.05;71.25;96159.94;4972697;28;20586;-91
2022/05/18 02:30:02;;;;;;;5.40;4.93;;;;;;;17.09;71.06;96155.13;4965129;28;20204;-91
2022/05/18 02:32:29;;;;;;;5.57;5.03;;;;;;;17.08;70.94;96150.94;4973712;28;20266;-91
2022/05/18 02:34:57;;;;;;;6.90;5.05;;;;;;;17.15;70.59;96159.50;4961128;28;20197;-91
2022/05/18 02:37:23;;;;;;;5.63;4.80;;;;;;;17.17;70.29;96157.50;4968698;28;20286;-91
2022/05/18 02:39:59;;;;;;;5.53;5.03;;;;;;;17.24;70.08;96160.91;4971762;28;20279;-91
2022/05/18 02:42:28;;;;;;;7.43;4.90;;;;;;;17.26;69.64;96158.91;4969856;28;20210;-91
2022/05/18 02:44:57;;;;;;;5.85;4.75;;;;;;;17.24;69.78;96159.09;4967966;28;20211;-91
2022/05/18 02:47:24;;;;;;;5.13;4.72;;;;;;;17.21;70.28;96161.31;4970306;28;20310;-92
2022/05/18 02:49:52;;;;;;;5.85;5.35;;;;;;;17.22;69.87;96158.50;4971430;28;20200;-91
2022/05/18 02:52:20;;;;;;;5.07;4.60;;;;;;;17.12;69.96;96155.53;4971676;28;20844;-91
2022/05/18 02:57:32;;;;;;;5.97;4.60;;;;;;;17.07;69.96;96163.16;4969592;28;20235;-91
2022/05/18 03:00:07;;;;;;;6.65;5.10;;;;;;;17.06;70.47;96163.34;4972648;28;20200;-92
2022/05/18 03:02:34;;;;;;;5.50;5.00;;;;;;;17.10;70.25;96167.94;4970773;28;20195;-91
2022/05/18 03:05:04;;;;;;;5.63;4.80;;;;;;;17.14;70.01;96163.13;4967723;28;20210;-91
2022/05/18 03:07:32;;;;;;;5.63;4.78;;;;;;;17.10;69.81;96159.34;4971456;28;20232;-90
2022/05/18 03:09:59;;;;;;;5.63;5.03;;;;;;;17.10;70.03;96172.34;4972131;28;20200;-90
2022/05/18 03:12:25;;;;;;;5.32;4.82;;;;;;;17.18;69.48;96175.53;4972904;28;20208;-91
2022/05/18 03:14:52;;;;;;;7.25;4.85;;;;;;;17.17;69.15;96176.53;4959873;28;20205;-91
2022/05/18 03:17:18;;;;;;;5.55;5.10;;;;;;;16.97;69.58;96182.75;4971806;28;20238;-92
2022/05/18 03:19:45;;;;;;;5.47;5.05;;;;;;;16.96;69.74;96178.56;4963648;28;20204;-90
2022/05/18 03:24:57;;;;;;;5.53;5.13;;;;;;;16.76;70.58;96194.97;4962038;28;20216;-91
2022/05/18 03:27:24;;;;;;;5.03;4.63;;;;;;;16.72;71.03;96185.97;4971976;28;20228;-90
2022/05/18 03:29:50;;;;;;;5.72;5.22;;;;;;;16.66;71.01;96197.16;4962468;28;20208;-91
2022/05/18 03:32:17;;;;;;;5.45;4.95;;;;;;;16.53;71.70;96190.13;4962763;28;20192;-92
2022/05/18 03:34:43;;;;;;;9.60;4.82;;;;;;;16.60;71.63;96192.72;4967506;28;20196;-91
2022/05/18 03:37:10;;;;;;;6.45;4.78;;;;;;;16.67;71.11;96190.97;4957704;28;20244;-92
2022/05/18 03:39:36;;;;;;;5.63;5.03;;;;;;;16.59;71.45;96191.94;4984612;28;20223;-90
2022/05/18 03:42:06;;;;;;;6.40;4.85;;;;;;;16.65;71.14;96194.78;4963489;28;20196;-91
2022/05/18 03:44:33;;;;;;;5.30;4.88;;;;;;;16.59;71.30;96197.13;4971655;28;20303;-91
2022/05/18 03:46:59;;;;;;;6.20;4.97;;;;;;;16.70;70.92;96198.38;4954714;28;20220;-91
2022/05/18 03:49:26;;;;;;;5.85;5.20;;;;;;;16.88;70.31;96197.78;4959188;28;20292;-91
2022/05/18 03:51:53;;;;;;;5.53;5.03;;;;;;;16.99;69.34;96202.38;4970990;28;20611;-91
2022/05/18 03:54:19;;;;;;;5.72;5.18;;;;;;;17.04;69.08;96197.38;4967756;28;20690;-92
2022/05/18 03:56:46;;;;;;;5.43;4.93;;;;;;;17.10;68.71;96196.56;4963843;28;20220;-92
2022/05/18 03:59:13;;;;;;;5.70;5.20;;;;;;;17.11;68.98;96205.19;4969008;28;20228;-81
2022/05/18 04:01:41;;;;;;;6.10;5.60;;;;;;;17.15;69.11;96208.97;4973200;28;20286;-82
2022/05/18 04:04:07;;;;;;;6.07;4.95;;;;;;;17.17;68.95;96205.16;4966192;28;20199;-83
2022/05/18 04:06:34;;;;;;;5.47;4.97;;;;;;;17.21;68.54;96202.94;4973359;28;20225;-84
2022/05/18 04:09:01;;;;;;;5.65;5.10;;;;;;;17.23;68.09;96209.56;4960680;28;20235;-83
2022/05/18 04:11:27;;;;;;;5.90;5.05;;;;;;;17.28;70.76;96208.97;4969609;28;20201;-84
2022/05/18 04:13:55;;;;;;;7.60;5.40;;;;;;;17.23;68.48;96214.75;4963098;28;20836;-82
2022/05/18 04:16:23;;;;;;;5.45;4.95;;;;;;;17.36;68.53;96211.31;4954029;28;20874;-83
2022/05/18 04:18:49;;;;;;;5.28;4.78;;;;;;;17.36;68.64;96215.75;4961743;28;20223;-82
2022/05/18 04:21:15;;;;;;;6.13;4.90;;;;;;;17.40;70.28;96212.53;4972614;28;20255;-82
2022/05/18 04:23:44;;;;;;;5.97;5.00;;;;;;;17.60;69.30;96212.50;4963742;28;20204;-82
2022/05/18 04:26:11;;;;;;;5.93;5.43;;;;;;;17.67;68.29;96218.53;4972801;28;20196;-82
2022/05/18 04:28:38;;;;;;;8.82;5.30;;;;;;;17.83;68.49;96214.66;4969706;28;20224;-83
2022/05/18 04:31:05;;;;;;;6.88;5.03;;;;;;;17.97;68.49;96221.41;4955263;28;20250;-82
2022/05/18 04:33:32;;;;;;;5.57;4.97;;;;;;;18.11;67.89;96227.34;4953106;28;20212;-82
2022/05/18 04:36:02;;;;;;;8.77;5.25;;;;;;;18.19;70.82;96242.75;4958688;28;20217;-86
2022/05/18 04:38:29;;;;;;;9.50;5.03;;;;;;;18.47;70.82;96248.41;4949530;28;20232;-86
2022/05/18 04:40:56;;;;;;;6.63;5.38;;;;;;;18.77;68.54;96243.47;4960236;28;20999;-87
2022/05/18 04:43:23;;;;;;;6.15;5.38;;;;;;;19.05;66.92;96244.88;4953572;28;20213;-88
2022/05/18 04:45:51;;;;;;;5.80;5.18;;;;;;;19.21;64.20;96247.75;4948816;28;20220;-85
2022/05/18 04:48:19;;;;;;;6.63;4.85;;;;;;;19.06;63.28;96249.06;4953925;28;20224;-83
2022/05/18 04:50:47;;;;;;;9.10;5.90;;;;;;;18.90;63.56;96261.63;4962478;28;20204;-82
2022/05/18 04:53:15;;;;;;;6.72;5.57;;;;;;;18.75;63.49;96255.91;4953314;29;20284;-83
2022/05/18 04:55:41;;;;;;;10.20;6.45;;;;;;;18.71;63.39;96269.59;4953278;28;20636;-84
2022/05/18 04:58:08;;;;;;;8.75;6.13;;;;;;;18.73;63.59;96270.19;4952229;28;20668;-83
2022/05/18 05:00:34;;;;;;;7.78;5.78;;;;;;;18.77;63.47;96271.38;4952215;28;20200;-81
2022/05/18 05:03:01;;;;;;;9.95;6.57;;;;;;;18.78;63.66;96267.75;4951673;28;20232;-81
2022/05/18 05:05:28;;;;;;;7.15;6.45;;;;;;;18.77;63.86;96269.56;4952255;28;20208;-83
2022/05/18 05:07:56;;;;;;;6.63;5.97;;;;;;;18.81;64.31;96273.34;4934356;28;20280;-84
2022/05/18 05:10:24;;;;;;;6.65;5.75;;;;;;;18.90;63.93;96282.50;4940525;29;20252;-83
2022/05/18 05:12:50;;;;;;;7.03;6.32;;;;;;;18.96;63.65;96279.06;4951143;28;20259;-83
2022/05/18 05:15:17;;;;;;;7.18;5.63;;;;;;;19.00;63.63;96289.09;4956975;28;20224;-83
2022/05/18 05:17:43;;;;;;;6.57;5.90;;;;;;;19.02;63.23;96284.44;4955107;28;20628;-82
2022/05/18 05:20:11;;;;;;;9.88;6.15;;;;;;;19.05;63.51;96281.44;4952738;28;20665;-81
2022/05/18 05:22:38;;;;;;;6.90;6.30;;;;;;;19.05;63.64;96289.25;4952832;28;20200;-81
2022/05/18 05:25:07;;;;;;;8.63;6.30;;;;;;;19.09;63.68;96288.59;4952711;28;20201;-82
2022/05/18 05:27:35;;;;;;;7.75;5.13;;;;;;;19.30;64.55;96296.06;4955927;28;20717;-85
2022/05/18 05:30:02;;;;;;;15.93;9.13;;;;;;;19.53;64.59;96292.91;4953858;28;20284;-84
2022/05/18 05:32:28;;;;;;;7.68;6.43;;;;;;;19.60;62.67;96287.63;4945446;28;20437;-84
2022/05/18 05:34:55;;;;;;;7.50;6.35;;;;;;;19.57;62.80;96286.22;4949765;29;20213;-83
2022/05/18 05:37:21;;;;;;;7.65;6.95;;;;;;;19.50;62.92;96287.28;4953409;28;20284;-84
2022/05/18 05:39:48;;;;;;;8.30;7.57;;;;;;;19.39;62.18;96283.56;4954074;28;20205;-83
2022/05/18 05:42:16;;;;;;;8.85;7.78;;;;;;;19.41;63.40;96280.72;4955641;28;20215;-83
2022/05/18 05:44:43;;;;;;;9.07;7.97;;;;;;;19.38;62.08;96281.94;4953966;28;20204;-84
2022/05/18 05:47:11;;;;;;;7.78;7.07;;;;;;;19.44;62.56;96281.06;4953473;28;20274;-83
2022/05/18 05:49:39;;;;;;;7.95;7.15;;;;;;;19.52;62.76;96290.50;4953484;28;20617;-85
2022/05/18 05:52:07;;;;;;;18.33;16.48;;;;;;;19.52;62.88;96291.28;4953594;28;20212;-83
2022/05/18 05:54:33;;;;;;;33.50;30.00;;;;;;;19.66;62.90;96289.34;4953941;29;20213;-84
2022/05/18 05:57:02;;;;;;;18.70;16.65;;;;;;;19.83;63.13;96292.19;4952087;28;20317;-84
2022/05/18 05:59:31;;;;;;;9.13;7.93;;;;;;;19.85;63.04;96290.16;4953843;29;20213;-82
2022/05/18 06:02:00;;;;;;;8.52;7.72;;;;;;;19.84;62.18;96291.19;4956025;28;20632;-85
2022/05/18 06:04:26;;;;;;;9.30;8.43;;;;;;;19.63;63.39;96297.59;4957806;28;20268;-84
2022/05/18 06:06:53;;;;;;;9.73;8.82;;;;;;;19.52;63.54;96303.56;4972728;28;20294;-85
2022/05/18 06:09:19;;;;;;;10.98;8.60;;;;;;;19.58;64.44;96297.47;4972858;28;20299;-83
2022/05/18 06:11:45;;;;;;;9.65;8.40;;;;;;;19.50;64.56;96305.56;4960310;28;20201;-83
2022/05/18 06:14:12;;;;;;;12.07;9.38;;;;;;;19.53;64.02;96305.16;4968095;28;20204;-85
2022/05/18 06:16:40;;;;;;;8.95;8.05;;;;;;;19.72;65.17;96301.56;4975989;28;20224;-84
2022/05/18 06:19:06;;;;;;;10.60;8.75;;;;;;;19.86;64.48;96299.59;4966230;28;20224;-83
2022/05/18 06:21:32;;;;;;;8.80;7.93;;;;;;;20.05;64.03;96295.97;4958608;28;20227;-81
2022/05/18 06:23:59;;;;;;;8.95;8.10;;;;;;;20.07;64.25;96307.03;4965176;28;20200;-83
2022/05/18 06:26:26;;;;;;;8.55;7.65;;;;;;;20.05;62.82;96311.66;4971609;28;20200;-85
2022/05/18 06:28:53;;;;;;;10.15;7.90;;;;;;;20.13;63.04;96308.78;4966253;28;20237;-82
2022/05/18 06:31:19;;;;;;;35.38;31.73;;;;;;;20.24;62.41;96307.22;4971511;28;20695;-85
2022/05/18 06:33:47;;;;;;;11.88;10.68;;;;;;;20.25;59.64;96306.22;4967702;28;20201;-84
2022/05/18 06:36:14;;;;;;;9.82;6.90;;;;;;;20.12;59.49;96309.78;4974720;28;20288;-84
2022/05/18 06:38:40;;;;;;;7.68;6.93;;;;;;;20.08;61.15;96319.06;4965216;28;20267;-82
2022/05/18 06:41:22;;;;;;;7.47;6.78;;;;;;;20.18;60.73;96311.53;4966199;28;20211;-84
2022/05/18 06:43:48;;;;;;;9.10;6.57;;;;;;;20.31;60.29;96319.22;4961732;28;20212;-83
2022/05/18 06:46:15;;;;;;;6.93;6.20;;;;;;;20.37;60.01;96316.78;4975498;28;20192;-84
2022/05/18 06:48:42;;;;;;;7.20;5.85;;;;;;;20.42;60.55;96319.53;4966380;28;20712;-83
2022/05/18 06:51:10;;;;;;;8.02;6.32;;;;;;;20.38;58.19;96316.56;4973774;28;20752;-84
2022/05/18 06:53:36;;;;;;;6.78;6.20;;;;;;;20.40;57.84;96318.97;4967258;28;20721;-83
2022/05/18 06:56:03;;;;;;;9.38;5.90;;;;;;;20.59;58.72;96317.94;4962534;28;20220;-82
2022/05/18 06:58:29;;;;;;;5.88;5.30;;;;;;;20.68;57.87;96319.19;4969633;28;20715;-83
2022/05/18 07:00:56;;;;;;;6.95;6.35;;;;;;;20.60;56.76;96316.88;4969463;28;20229;-84
2022/05/18 07:03:22;;;;;;;6.35;5.75;;;;;;;20.60;56.83;96322.09;4969963;28;20204;-84
2022/05/18 07:05:49;;;;;;;6.13;5.53;;;;;;;20.67;57.45;96322.84;4973991;28;20827;-83
2022/05/18 07:08:16;;;;;;;6.68;5.90;;;;;;;20.77;56.29;96317.88;4968754;28;20235;-82
2022/05/18 07:10:43;;;;;;;9.93;5.75;;;;;;;20.82;56.73;96318.00;4970683;28;20204;-84
2022/05/18 07:13:10;;;;;;;7.63;5.80;;;;;;;20.83;56.58;96318.78;4971564;28;20204;-83
2022/05/18 07:15:37;;;;;;;5.90;5.40;;;;;;;20.89;56.20;96313.47;4968895;28;20197;-84
2022/05/18 07:18:04;;;;;;;7.53;5.50;;;;;;;21.00;56.49;96306.66;4938544;28;20300;-83
2022/05/18 07:20:30;;;;;;;8.07;5.18;;;;;;;21.11;55.58;96308.53;4972236;28;20196;-85
2022/05/18 07:22:57;;;;;;;5.45;4.95;;;;;;;21.27;56.33;96309.72;4965657;28;20242;-83
2022/05/18 07:25:24;;;;;;;6.47;5.00;;;;;;;21.36;55.80;96305.72;4970974;28;20192;-86
2022/05/18 07:27:51;;;;;;;5.40;4.60;;;;;;;21.41;55.65;96307.69;4970030;28;20224;-83
2022/05/18 07:30:17;;;;;;;5.95;4.95;;;;;;;21.48;54.69;96311.78;4970051;28;20732;-85
2022/05/18 07:32:44;;;;;;;4.88;4.38;;;;;;;21.53;53.92;96316.38;4971258;28;20203;-82
2022/05/18 07:35:11;;;;;;;16.13;14.43;;;;;;;21.68;53.43;96306.22;4969644;28;20257;-84
2022/05/18 07:37:37;;;;;;;9.95;8.95;;;;;;;21.78;52.61;96318.75;4970565;28;20287;-82
2022/05/18 07:40:06;;;;;;;7.53;4.88;;;;;;;21.78;52.92;96311.66;4956881;28;20220;-82
2022/05/18 07:42:34;;;;;;;5.10;4.15;;;;;;;21.91;51.86;96318.53;4957739;28;20200;-84
2022/05/18 07:45:01;;;;;;;5.45;4.50;;;;;;;22.13;54.12;96314.28;4965764;28;20209;-82
2022/05/18 07:47:29;;;;;;;4.32;3.83;;;;;;;22.19;51.24;96309.94;4971279;28;20278;-84
2022/05/18 07:49:55;;;;;;;5.47;3.80;;;;;;;22.20;52.09;96312.34;4959426;28;20208;-85
2022/05/18 07:52:22;;;;;;;4.25;3.83;;;;;;;22.28;52.60;96311.19;4967304;28;20303;-85
2022/05/18 07:54:48;;;;;;;4.88;3.63;;;;;;;22.38;50.89;96314.81;4974724;28;20206;-84
2022/05/18 07:57:16;;;;;;;5.43;3.53;;;;;;;22.46;50.11;96316.28;4973607;28;20236;-85
2022/05/18 07:59:44;;;;;;;4.13;3.72;;;;;;;22.46;49.17;96318.91;4976862;28;20658;-84
2022/05/18 08:02:11;;;;;;;5.43;3.33;;;;;;;22.57;49.24;96307.56;4969928;28;20201;-85
2022/05/18 08:04:37;;;;;;;7.78;3.85;;;;;;;22.64;50.21;96321.34;4971205;28;20200;-85
2022/05/18 08:07:04;;;;;;;5.38;4.07;;;;;;;22.81;49.30;96310.91;4960344;28;20278;-84
2022/05/18 08:15:05;;;;;;;3.65;3.35;;;;;;;22.88;49.37;96316.84;4972299;28;20197;-84
2022/05/18 08:15:08;;;;;;;6.22;4.35;;;;;;;23.31;48.36;96321.47;4967307;28;20219;-84
2022/05/18 08:17:35;;;;;;;5.20;3.92;;;;;;;23.44;48.77;96317.75;4955533;28;20237;-85
2022/05/18 08:20:05;;;;;;;3.90;3.50;;;;;;;23.59;48.29;96323.28;4966112;28;20232;-83
2022/05/18 08:22:32;;;;;;;5.50;3.72;;;;;;;23.71;48.86;96320.53;4963620;28;20231;-84
2022/05/18 08:24:58;;;;;;;5.38;3.83;;;;;;;23.67;47.84;96319.44;4974600;28;20204;-85
2022/05/18 08:27:24;;;;;;;4.28;3.78;;;;;;;23.69;48.16;96323.41;4972103;28;20227;-82
2022/05/18 08:29:51;;;;;;;3.85;3.53;;;;;;;23.65;48.45;96330.22;4974552;28;20204;-85
2022/05/18 08:32:19;;;;;;;4.13;3.72;;;;;;;23.72;47.40;96322.13;4965784;28;20204;-86
2022/05/18 08:34:45;;;;;;;5.00;3.60;;;;;;;23.67;46.89;96324.69;4976656;28;20615;-85
2022/05/18 08:37:37;;;;;;;5.38;3.80;;;;;;;23.74;47.19;96320.88;4955947;28;20222;-86
2022/05/18 08:40:07;;;;;;;5.53;3.70;;;;;;;24.07;47.26;96321.81;4970279;28;20217;-84
2022/05/18 08:42:35;;;;;;;4.00;3.58;;;;;;;24.03;46.96;96318.13;4954148;28;20205;-84
2022/05/18 08:45:02;;;;;;;4.45;3.70;;;;;;;24.19;47.38;96314.63;4948151;28;20260;-83
2022/05/18 08:47:41;;;;;;;4.13;3.83;;;;;;;24.36;46.59;96322.50;4950998;28;20232;-83
2022/05/18 08:50:12;;;;;;;6.65;3.80;;;;;;;24.45;45.50;96313.91;4949579;28;20227;-84
2022/05/18 08:53:04;;;;;;;4.45;3.92;;;;;;;24.53;46.73;96304.78;4953741;28;20236;-83
2022/05/18 08:55:49;;;;;;;4.57;3.97;;;;;;;24.70;47.85;96307.34;4953194;28;20192;-84
2022/05/18 08:58:20;;;;;;;4.93;4.25;;;;;;;24.83;47.82;96309.56;4951965;28;20236;-85
2022/05/18 09:00:53;;;;;;;6.10;4.47;;;;;;;24.93;46.18;96314.16;4951813;28;20229;-84
2022/05/18 09:03:24;;;;;;;4.97;4.07;;;;;;;24.93;46.61;96307.06;4957471;28;20646;-85
2022/05/18 09:05:57;;;;;;;6.38;4.72;;;;;;;24.96;47.65;96309.22;4968426;28;20204;-84
2022/05/18 09:08:28;;;;;;;5.07;4.68;;;;;;;24.95;48.01;96306.84;4972019;28;20227;-83
2022/05/18 09:11:02;;;;;;;7.10;4.32;;;;;;;24.98;47.98;96303.72;4975422;28;20208;-83
2022/05/18 09:13:29;;;;;;;7.03;4.30;;;;;;;25.19;48.16;96297.56;4965855;28;20200;-84
2022/05/18 09:16:07;;;;;;;7.60;4.80;;;;;;;25.16;46.65;96295.44;4970431;28;20204;-83
2022/05/18 09:18:42;;;;;;;5.25;4.20;;;;;;;25.20;46.92;96301.00;4962548;28;20814;-84
2022/05/18 09:21:20;;;;;;;6.22;4.40;;;;;;;25.48;46.92;96303.31;4936823;29;20594;-84
2022/05/18 09:23:58;;;;;;;4.68;3.63;;;;;;;25.54;45.39;96304.97;4955130;28;20204;-83
2022/05/18 09:26:55;;;;;;;4.40;3.75;;;;;;;25.65;45.32;96301.34;4971051;28;20204;-84
2022/05/18 09:29:27;;;;;;;4.60;3.90;;;;;;;25.69;44.08;96302.44;4959547;28;20231;-84
2022/05/18 09:32:15;;;;;;;5.55;4.15;;;;;;;25.91;43.65;96297.03;4976003;28;20226;-84
2022/05/18 09:35:04;;;;;;;5.82;4.15;;;;;;;25.91;44.73;96301.53;4972294;28;20216;-84
2022/05/18 09:37:36;;;;;;;5.60;3.92;;;;;;;26.08;44.80;96299.50;4975077;28;20261;-84
2022/05/18 09:40:09;;;;;;;4.88;4.30;;;;;;;26.36;45.17;96298.34;4971185;28;20382;-83
2022/05/18 09:42:40;;;;;;;5.30;4.25;;;;;;;26.45;43.55;96299.41;4971634;28;20610;-82
2022/05/18 09:45:11;;;;;;;3.80;3.50;;;;;;;26.31;44.05;96295.66;4976981;28;20247;-85
2022/05/18 09:47:44;;;;;;;4.18;3.78;;;;;;;26.19;40.78;96302.97;4973281;28;20315;-84
2022/05/18 09:50:13;;;;;;;4.32;4.00;;;;;;;26.17;40.45;96297.16;4965869;28;20215;-84
2022/05/18 09:52:41;;;;;;;9.00;6.75;;;;;;;26.23;41.69;96296.13;4973447;28;20205;-84
2022/05/18 09:55:11;;;;;;;4.85;3.50;;;;;;;26.25;40.47;96291.38;4975953;28;20200;-84
2022/05/18 09:57:44;;;;;;;4.28;3.30;;;;;;;26.35;41.09;96297.53;4973837;28;20240;-83
2022/05/18 10:00:14;;;;;;;5.40;3.53;;;;;;;26.64;41.34;96294.44;4974168;28;20243;-84
2022/05/18 10:08:15;;;;;;;3.55;3.10;;;;;;;26.81;40.58;96295.00;4970864;28;20259;-84
2022/05/18 10:10:44;;;;;;;3.30;3.00;;;;;;;26.79;39.49;96289.97;4964722;28;20212;-84
2022/05/18 10:13:13;;;;;;;4.70;3.45;;;;;;;27.01;38.87;96291.63;4965419;28;20204;-85
2022/05/18 10:15:43;;;;;;;3.33;2.63;;;;;;;27.04;36.39;96288.47;4969859;28;20192;-84
2022/05/18 10:18:17;;;;;;;3.42;3.00;;;;;;;27.12;36.07;96288.75;4972040;28;20700;-83
2022/05/18 10:21:02;;;;;;;3.13;2.63;;;;;;;27.37;35.78;96284.50;4973481;28;20624;-83
2022/05/18 10:23:33;;;;;;;4.00;2.65;;;;;;;27.55;36.61;96291.88;4970400;28;20219;-85
2022/05/18 10:26:01;;;;;;;5.22;2.75;;;;;;;27.69;36.11;96289.53;4973832;28;20204;-85
2022/05/18 10:28:30;;;;;;;3.67;2.58;;;;;;;27.76;36.36;96285.53;4971057;28;20227;-83
2022/05/18 10:30:59;;;;;;;3.03;2.60;;;;;;;27.78;35.32;96286.06;4973696;28;20205;-84
2022/05/18 10:33:32;;;;;;;4.50;3.75;;;;;;;27.80;35.82;96289.22;4968683;28;20205;-83
2022/05/18 10:36:08;;;;;;;27.23;24.58;;;;;;;27.88;34.75;96289.75;4969804;28;20240;-84
2022/05/18 10:38:36;;;;;;;5.00;3.88;;;;;;;27.81;35.06;96280.25;4971842;28;20219;-85
2022/05/18 10:41:15;;;;;;;3.42;3.08;;;;;;;28.00;35.97;96283.09;4974413;28;20208;-85
2022/05/18 10:43:45;;;;;;;4.03;3.22;;;;;;;28.12;36.43;96283.56;4965131;28;20227;-84
2022/05/18 10:46:27;;;;;;;6.00;3.40;;;;;;;28.03;36.69;96289.72;4968910;28;20224;-83
2022/05/18 10:48:57;;;;;;;3.22;2.92;;;;;;;27.91;36.68;96281.25;4972789;28;20228;-84
2022/05/18 10:51:32;;;;;;;3.30;3.00;;;;;;;27.75;36.52;96275.22;4967095;28;20223;-84
2022/05/18 10:54:10;;;;;;;6.32;3.08;;;;;;;27.73;35.11;96282.63;4973365;28;20586;-85
2022/05/18 10:56:37;;;;;;;3.05;2.85;;;;;;;27.85;36.58;96283.16;4954795;28;20208;-82
2022/05/18 10:59:21;;;;;;;3.47;3.17;;;;;;;27.79;37.01;96274.41;4969382;28;20223;-83
2022/05/18 11:01:54;;;;;;;4.65;2.97;;;;;;;27.77;36.39;96275.75;4965749;28;20209;-85
2022/05/18 11:04:28;;;;;;;3.83;3.00;;;;;;;27.80;36.59;96273.34;4975073;28;20200;-85
2022/05/18 11:06:56;;;;;;;8.60;3.55;;;;;;;27.80;35.53;96270.72;4958046;28;20315;-85
2022/05/18 11:09:28;;;;;;;6.18;3.63;;;;;;;27.83;36.56;96266.72;4976439;28;20217;-84
2022/05/18 11:12:00;;;;;;;5.20;4.72;;;;;;;28.05;36.11;96269.06;4967247;28;20208;-84
2022/05/18 11:14:40;;;;;;;4.15;3.25;;;;;;;27.94;36.75;96273.56;4973230;28;20208;-83
2022/05/18 11:17:24;;;;;;;3.28;2.90;;;;;;;27.89;36.07;96267.53;4968211;28;20219;-85
2022/05/18 11:20:01;;;;;;;3.15;2.60;;;;;;;27.90;36.29;96267.25;4975094;28;20215;-83
2022/05/18 11:22:33;;;;;;;3.17;2.88;;;;;;;28.08;37.15;96274.59;4971837;28;20196;-84
2022/05/18 11:25:14;;;;;;;2.78;2.40;;;;;;;28.04;35.61;96268.25;4960837;28;20293;-85
2022/05/18 11:27:49;;;;;;;3.35;2.80;;;;;;;27.61;36.51;96264.41;4968855;28;20525;-85
2022/05/18 11:30:19;;;;;;;3.58;3.28;;;;;;;27.44;37.51;96255.94;4956588;28;20221;-85
2022/05/18 11:33:01;;;;;;;3.30;3.05;;;;;;;27.58;38.42;96259.63;4975897;28;20200;-85
2022/05/18 11:35:42;;;;;;;3.60;3.17;;;;;;;27.67;38.41;96259.91;4969216;28;20270;-83
2022/05/18 11:38:34;;;;;;;4.13;3.40;;;;;;;27.72;37.07;96252.72;4955363;28;20692;-84
2022/05/18 11:41:16;;;;;;;4.60;3.58;;;;;;;27.44;36.92;96254.09;4973014;28;20204;-84
2022/05/18 11:43:57;;;;;;;6.15;3.38;;;;;;;27.41;38.70;96251.16;4965907;28;20236;-84
2022/05/18 11:46:41;;;;;;;4.03;3.22;;;;;;;27.57;38.77;96250.09;4957338;28;20204;-85
2022/05/18 11:49:17;;;;;;;3.30;3.05;;;;;;;27.67;38.38;96249.31;4952675;28;20215;-84
2022/05/18 11:51:56;;;;;;;4.00;3.17;;;;;;;27.27;37.47;96248.28;4965094;28;20267;-85
2022/05/18 11:54:38;;;;;;;19.60;17.83;;;;;;;27.16;39.20;96244.84;4967624;28;20258;-85
2022/05/18 11:57:14;;;;;;;4.85;4.13;;;;;;;27.27;38.82;96255.41;4964158;28;20224;-83
2022/05/18 12:00:10;;;;;;;2.95;2.65;;;;;;;27.37;39.06;96244.81;4950823;28;20282;-83
2022/05/18 12:03:04;;;;;;;3.65;3.35;;;;;;;27.42;38.67;96237.69;4954653;28;20680;-83